sensor_id;sensor_type;location;lat;lon;timestamp;pressure;altitude;pressure_sealevel;temperature;humidity
18509;BME280;9383;50.928;12.116;2023-02-12T00:00:36;100694.75;;;5.64;100.00
18509;BME280;9383;50.928;12.116;2023-02-12T00:03:04;100691.25;;;5.65;100.00
18509;BME280;9383;50.928;12.116;2023-02-12T00:05:37;100691.25;;;5.65;100.00
18509;BME280;9383;50.928;12.116;2023-02-12T00:08:06;100695.66;;;5.65;100.00
18509;BME280;9383;50.928;12.116;2023-02-12T00:10:32;100695.63;;;5.63;100.00
18509;BME280;9383;50.928;12.116;2023-02-12T00:12:59;100697.38;;;5.64;100.00
18509;BME280;9383;50.928;12.116;2023-02-12T00:15:26;100700.91;;;5.65;100.00
18509;BME280;9383;50.928;12.116;2023-02-12T00:17:53;100694.75;;;5.64;100.00
18509;BME280;9383;50.928;12.116;2023-02-12T00:20:20;100701.78;;;5.63;100.00
18509;BME280;9383;50.928;12.116;2023-02-12T00:22:46;100708.81;;;5.65;100.00
18509;BME280;9383;50.928;12.116;2023-02-12T00:25:13;100705.28;;;5.64;100.00
18509;BME280;9383;50.928;12.116;2023-02-12T00:27:40;100700.00;;;5.64;100.00
18509;BME280;9383;50.928;12.116;2023-02-12T00:30:06;100704.41;;;5.63;100.00
18509;BME280;9383;50.928;12.116;2023-02-12T00:32:33;100707.03;;;5.63;100.00
18509;BME280;9383;50.928;12.116;2023-02-12T00:35:02;100712.31;;;5.63;100.00
18509;BME280;9383;50.928;12.116;2023-02-12T00:37:28;100704.41;;;5.63;100.00
18509;BME280;9383;50.928;12.116;2023-02-12T00:39:57;100711.41;;;5.63;100.00
18509;BME280;9383;50.928;12.116;2023-02-12T00:42:27;100707.00;;;5.62;100.00
18509;BME280;9383;50.928;12.116;2023-02-12T00:44:54;100704.38;;;5.62;100.00
18509;BME280;9383;50.928;12.116;2023-02-12T00:47:20;100701.75;;;5.62;100.00
18509;BME280;9383;50.928;12.116;2023-02-12T00:49:47;100706.09;;;5.61;100.00
18509;BME280;9383;50.928;12.116;2023-02-12T00:52:14;100704.38;;;5.62;100.00
18509;BME280;9383;50.928;12.116;2023-02-12T00:54:40;100703.50;;;5.63;100.00
18509;BME280;9383;50.928;12.116;2023-02-12T00:57:07;100707.91;;;5.62;100.00
18509;BME280;9383;50.928;12.116;2023-02-12T00:59:34;100702.66;;;5.62;100.00
18509;BME280;9383;50.928;12.116;2023-02-12T01:02:03;100701.75;;;5.62;100.00
18509;BME280;9383;50.928;12.116;2023-02-12T01:04:30;100702.66;;;5.62;100.00
18509;BME280;9383;50.928;12.116;2023-02-12T01:06:57;100699.13;;;5.62;100.00
18509;BME280;9383;50.928;12.116;2023-02-12T01:09:23;100708.75;;;5.61;100.00
18509;BME280;9383;50.928;12.116;2023-02-12T01:11:51;100707.91;;;5.62;100.00
18509;BME280;9383;50.928;12.116;2023-02-12T01:14:17;100712.28;;;5.62;100.00
18509;BME280;9383;50.928;12.116;2023-02-12T01:16:44;100712.28;;;5.62;100.00
18509;BME280;9383;50.928;12.116;2023-02-12T01:19:11;100713.16;;;5.62;100.00
18509;BME280;9383;50.928;12.116;2023-02-12T01:21:38;100717.53;;;5.62;100.00
18509;BME280;9383;50.928;12.116;2023-02-12T01:24:05;100718.44;;;5.62;100.00
18509;BME280;9383;50.928;12.116;2023-02-12T01:26:31;100721.03;;;5.61;100.00
18509;BME280;9383;50.928;12.116;2023-02-12T01:29:00;100725.44;;;5.62;100.00
18509;BME280;9383;50.928;12.116;2023-02-12T01:31:31;100721.91;;;5.61;100.00
18509;BME280;9383;50.928;12.116;2023-02-12T01:33:59;100718.41;;;5.61;100.00
18509;BME280;9383;50.928;12.116;2023-02-12T01:36:27;100723.66;;;5.61;100.00
18509;BME280;9383;50.928;12.116;2023-02-12T01:38:55;100718.41;;;5.61;100.00
18509;BME280;9383;50.928;12.116;2023-02-12T01:41:25;100716.63;;;5.60;100.00
18509;BME280;9383;50.928;12.116;2023-02-12T01:46:45;100718.41;;;5.61;100.00
18509;BME280;9383;50.928;12.116;2023-02-12T01:49:27;100645.00;;;5.18;100.00
18509;BME280;9383;50.928;12.116;2023-02-12T01:54:35;100706.06;;;5.57;100.00
18509;BME280;9383;50.928;12.116;2023-02-12T01:57:05;100707.81;;;5.56;100.00
18509;BME280;9383;50.928;12.116;2023-02-12T01:59:32;100718.31;;;5.56;100.00
18509;BME280;9383;50.928;12.116;2023-02-12T02:02:01;100717.47;;;5.57;100.00
18509;BME280;9383;50.928;12.116;2023-02-12T02:04:31;100713.06;;;5.56;100.00
18509;BME280;9383;50.928;12.116;2023-02-12T02:07:01;100706.06;;;5.57;100.00
18509;BME280;9383;50.928;12.116;2023-02-12T02:09:30;100710.44;;;5.56;100.00
18509;BME280;9383;50.928;12.116;2023-02-12T02:11:57;100711.34;;;5.58;100.00
18509;BME280;9383;50.928;12.116;2023-02-12T02:14:43;100708.69;;;5.57;100.00
18509;BME280;9383;50.928;12.116;2023-02-12T02:23:33;100708.69;;;5.57;100.00
18509;BME280;9383;50.928;12.116;2023-02-12T02:29:12;100718.31;;;5.56;100.00
18509;BME280;9383;50.928;12.116;2023-02-12T02:31:57;100720.97;;;5.56;100.00
18509;BME280;9383;50.928;12.116;2023-02-12T02:37:30;100723.56;;;5.55;100.00
18509;BME280;9383;50.928;12.116;2023-02-12T02:40:12;100720.91;;;5.55;100.00
18509;BME280;9383;50.928;12.116;2023-02-12T02:43:08;100716.53;;;5.54;100.00
18509;BME280;9383;50.928;12.116;2023-02-12T02:45:45;100719.16;;;5.54;100.00
18509;BME280;9383;50.928;12.116;2023-02-12T02:48:16;100717.38;;;5.53;100.00
18509;BME280;9383;50.928;12.116;2023-02-12T02:50:48;100712.13;;;5.53;100.00
18509;BME280;9383;50.928;12.116;2023-02-12T02:53:21;100712.13;;;5.53;100.00
18509;BME280;9383;50.928;12.116;2023-02-12T02:55:51;100706.88;;;5.53;100.00
18509;BME280;9383;50.928;12.116;2023-02-12T02:58:23;100707.78;;;5.53;100.00
18509;BME280;9383;50.928;12.116;2023-02-12T03:03:36;100712.13;;;5.53;100.00
18509;BME280;9383;50.928;12.116;2023-02-12T03:06:19;100722.66;;;5.51;100.00
18509;BME280;9383;50.928;12.116;2023-02-12T03:08:57;100719.13;;;5.51;100.00
18509;BME280;9383;50.928;12.116;2023-02-12T03:11:29;100721.78;;;5.52;100.00
18509;BME280;9383;50.928;12.116;2023-02-12T03:14:11;100725.28;;;5.51;100.00
18509;BME280;9383;50.928;12.116;2023-02-12T03:17:01;100732.28;;;5.51;100.00
18509;BME280;9383;50.928;12.116;2023-02-12T03:19:37;100735.81;;;5.51;100.00
18509;BME280;9383;50.928;12.116;2023-02-12T03:22:27;100735.81;;;5.51;100.00
18509;BME280;9383;50.928;12.116;2023-02-12T03:25:12;100737.53;;;5.51;100.00
18509;BME280;9383;50.928;12.116;2023-02-12T03:27:48;100740.16;;;5.51;100.00
18509;BME280;9383;50.928;12.116;2023-02-12T03:30:16;100739.31;;;5.50;100.00
18509;BME280;9383;50.928;12.116;2023-02-12T03:35:20;100743.69;;;5.51;100.00
18509;BME280;9383;50.928;12.116;2023-02-12T03:43:08;100745.44;;;5.51;100.00
18509;BME280;9383;50.928;12.116;2023-02-12T03:45:47;100753.31;;;5.51;100.00
18509;BME280;9383;50.928;12.116;2023-02-12T03:51:22;100751.56;;;5.49;100.00
18509;BME280;9383;50.928;12.116;2023-02-12T03:53:52;100757.72;;;5.52;100.00
18509;BME280;9383;50.928;12.116;2023-02-12T03:59:11;100759.47;;;5.51;100.00
18509;BME280;9383;50.928;12.116;2023-02-12T04:01:38;100755.09;;;5.50;100.00
18509;BME280;9383;50.928;12.116;2023-02-12T04:04:07;100761.22;;;5.51;100.00
18509;BME280;9383;50.928;12.116;2023-02-12T04:06:34;100760.34;;;5.50;100.00
18509;BME280;9383;50.928;12.116;2023-02-12T04:09:06;100762.13;;;5.51;100.00
18509;BME280;9383;50.928;12.116;2023-02-12T04:14:48;100767.38;;;5.51;100.00
18509;BME280;9383;50.928;12.116;2023-02-12T04:17:31;100772.63;;;5.51;100.00
18509;BME280;9383;50.928;12.116;2023-02-12T04:20:16;100774.41;;;5.52;100.00
18509;BME280;9383;50.928;12.116;2023-02-12T04:26:05;100777.03;;;5.52;100.00
18509;BME280;9383;50.928;12.116;2023-02-12T04:34:26;100784.88;;;5.51;100.00
18509;BME280;9383;50.928;12.116;2023-02-12T04:37:05;100785.75;;;5.49;100.00
18509;BME280;9383;50.928;12.116;2023-02-12T04:39:36;100783.13;;;5.49;100.00
18509;BME280;9383;50.928;12.116;2023-02-12T04:42:04;100790.13;;;5.49;100.00
18509;BME280;9383;50.928;12.116;2023-02-12T04:44:33;100790.97;;;5.48;100.00
18509;BME280;9383;50.928;12.116;2023-02-12T04:47:00;100790.97;;;5.48;100.00
18509;BME280;9383;50.928;12.116;2023-02-12T04:49:27;100787.47;;;5.47;100.00
18509;BME280;9383;50.928;12.116;2023-02-12T04:51:53;100795.38;;;5.47;100.00
18509;BME280;9383;50.928;12.116;2023-02-12T04:54:22;100786.56;;;5.47;100.00
18509;BME280;9383;50.928;12.116;2023-02-12T04:56:51;100791.88;;;5.48;100.00
18509;BME280;9383;50.928;12.116;2023-02-12T04:59:18;100793.59;;;5.48;100.00
18509;BME280;9383;50.928;12.116;2023-02-12T05:01:44;100790.09;;;5.47;100.00
18509;BME280;9383;50.928;12.116;2023-02-12T05:04:13;100797.09;;;5.47;100.00
18509;BME280;9383;50.928;12.116;2023-02-12T05:06:41;100799.78;;;5.48;100.00
18509;BME280;9383;50.928;12.116;2023-02-12T05:09:08;100797.13;;;5.48;100.00
18509;BME280;9383;50.928;12.116;2023-02-12T05:11:35;100798.88;;;5.46;100.00
18509;BME280;9383;50.928;12.116;2023-02-12T05:14:02;100797.09;;;5.47;100.00
18509;BME280;9383;50.928;12.116;2023-02-12T05:16:28;100803.25;;;5.47;100.00
18509;BME280;9383;50.928;12.116;2023-02-12T05:18:55;100790.09;;;5.47;100.00
18509;BME280;9383;50.928;12.116;2023-02-12T05:21:21;100801.50;;;5.46;100.00
18509;BME280;9383;50.928;12.116;2023-02-12T05:23:48;100796.22;;;5.46;100.00
18509;BME280;9383;50.928;12.116;2023-02-12T05:26:19;100804.13;;;5.46;100.00
18509;BME280;9383;50.928;12.116;2023-02-12T05:28:46;100800.59;;;5.46;100.00
18509;BME280;9383;50.928;12.116;2023-02-12T05:31:16;100797.97;;;5.46;100.00
18509;BME280;9383;50.928;12.116;2023-02-12T05:33:45;100800.59;;;5.46;100.00
18509;BME280;9383;50.928;12.116;2023-02-12T05:36:15;100795.34;;;5.46;100.00
18509;BME280;9383;50.928;12.116;2023-02-12T05:38:42;100799.72;;;5.45;100.00
18509;BME280;9383;50.928;12.116;2023-02-12T05:41:13;100797.09;;;5.45;100.00
18509;BME280;9383;50.928;12.116;2023-02-12T05:43:40;100799.72;;;5.45;100.00
18509;BME280;9383;50.928;12.116;2023-02-12T05:46:08;100804.13;;;5.46;100.00
18509;BME280;9383;50.928;12.116;2023-02-12T05:48:36;100802.34;;;5.45;100.00
18509;BME280;9383;50.928;12.116;2023-02-12T05:53:34;100796.22;;;5.46;100.00
18509;BME280;9383;50.928;12.116;2023-02-12T05:56:20;100801.50;;;5.46;100.00
18509;BME280;9383;50.928;12.116;2023-02-12T05:58:51;100805.91;;;5.47;100.00
18509;BME280;9383;50.928;12.116;2023-02-12T06:01:21;100804.13;;;5.46;100.00
18509;BME280;9383;50.928;12.116;2023-02-12T06:03:48;100807.63;;;5.45;100.00
18509;BME280;9383;50.928;12.116;2023-02-12T06:06:14;100805.00;;;5.45;100.00
18509;BME280;9383;50.928;12.116;2023-02-12T06:08:41;100816.38;;;5.46;100.00
18509;BME280;9383;50.928;12.116;2023-02-12T06:11:11;100813.75;;;5.46;100.00
18509;BME280;9383;50.928;12.116;2023-02-12T06:13:39;100820.78;;;5.45;100.00
18509;BME280;9383;50.928;12.116;2023-02-12T06:16:14;100820.78;;;5.45;100.00
18509;BME280;9383;50.928;12.116;2023-02-12T06:18:41;100814.59;;;5.45;100.00
18509;BME280;9383;50.928;12.116;2023-02-12T06:21:08;100809.34;;;5.45;100.00
18509;BME280;9383;50.928;12.116;2023-02-12T06:23:34;100818.13;;;5.45;100.00
18509;BME280;9383;50.928;12.116;2023-02-12T06:26:01;100820.78;;;5.45;100.00
18509;BME280;9383;50.928;12.116;2023-02-12T06:28:27;100830.41;;;5.45;100.00
18509;BME280;9383;50.928;12.116;2023-02-12T06:30:54;100819.00;;;5.44;100.00
18509;BME280;9383;50.928;12.116;2023-02-12T06:33:21;100829.53;;;5.44;100.00
18509;BME280;9383;50.928;12.116;2023-02-12T06:35:47;100831.22;;;5.42;100.00
18509;BME280;9383;50.928;12.116;2023-02-12T06:38:14;100840.88;;;5.43;100.00
18509;BME280;9383;50.928;12.116;2023-02-12T06:40:41;100834.75;;;5.43;100.00
18509;BME280;9383;50.928;12.116;2023-02-12T06:43:07;100832.06;;;5.41;100.00
18509;BME280;9383;50.928;12.116;2023-02-12T06:45:34;100845.22;;;5.41;100.00
18509;BME280;9383;50.928;12.116;2023-02-12T06:48:00;100848.75;;;5.42;100.00
18509;BME280;9383;50.928;12.116;2023-02-12T06:50:27;100855.75;;;5.41;100.00
18509;BME280;9383;50.928;12.116;2023-02-12T06:52:54;100860.16;;;5.41;100.00
18509;BME280;9383;50.928;12.116;2023-02-12T06:55:20;100855.75;;;5.40;100.00
18509;BME280;9383;50.928;12.116;2023-02-12T06:57:47;100857.50;;;5.41;100.00
18509;BME280;9383;50.928;12.116;2023-02-12T07:00:14;100868.91;;;5.41;100.00
18509;BME280;9383;50.928;12.116;2023-02-12T07:02:40;100866.28;;;5.41;100.00
18509;BME280;9383;50.928;12.116;2023-02-12T07:05:07;100862.78;;;5.41;100.00
18509;BME280;9383;50.928;12.116;2023-02-12T07:07:34;100863.66;;;5.41;100.00
18509;BME280;9383;50.928;12.116;2023-02-12T07:10:00;100867.19;;;5.42;100.00
18509;BME280;9383;50.928;12.116;2023-02-12T07:12:27;100865.41;;;5.41;100.00
18509;BME280;9383;50.928;12.116;2023-02-12T07:14:53;100873.31;;;5.42;100.00
18509;BME280;9383;50.928;12.116;2023-02-12T07:17:20;100871.53;;;5.41;100.00
18509;BME280;9383;50.928;12.116;2023-02-12T07:19:46;100875.06;;;5.42;100.00
18509;BME280;9383;50.928;12.116;2023-02-12T07:22:13;100880.31;;;5.42;100.00
18509;BME280;9383;50.928;12.116;2023-02-12T07:24:39;100879.44;;;5.41;100.00
18509;BME280;9383;50.928;12.116;2023-02-12T07:27:06;100875.94;;;5.42;100.00
18509;BME280;9383;50.928;12.116;2023-02-12T07:29:34;100878.56;;;5.42;100.00
18509;BME280;9383;50.928;12.116;2023-02-12T07:32:00;100883.81;;;5.42;100.00
18509;BME280;9383;50.928;12.116;2023-02-12T07:34:27;100893.47;;;5.43;100.00
18509;BME280;9383;50.928;12.116;2023-02-12T07:36:53;100892.66;;;5.44;100.00
18509;BME280;9383;50.928;12.116;2023-02-12T07:39:20;100887.41;;;5.44;100.00
18509;BME280;9383;50.928;12.116;2023-02-12T07:41:46;100896.16;;;5.45;100.00
18509;BME280;9383;50.928;12.116;2023-02-12T07:44:13;100896.19;;;5.46;100.00
18509;BME280;9383;50.928;12.116;2023-02-12T07:46:45;100891.81;;;5.47;100.00
18509;BME280;9383;50.928;12.116;2023-02-12T07:49:18;100897.97;;;5.49;100.00
18509;BME280;9383;50.928;12.116;2023-02-12T07:51:45;100901.50;;;5.49;100.00
18509;BME280;9383;50.928;12.116;2023-02-12T07:54:13;100898.88;;;5.49;100.00
18509;BME280;9383;50.928;12.116;2023-02-12T07:56:41;100895.41;;;5.52;100.00
18509;BME280;9383;50.928;12.116;2023-02-12T07:59:11;100891.94;;;5.53;100.00
18509;BME280;9383;50.928;12.116;2023-02-12T08:01:44;100900.72;;;5.55;100.00
18509;BME280;9383;50.928;12.116;2023-02-12T08:04:14;100905.16;;;5.58;100.00
18509;BME280;9383;50.928;12.116;2023-02-12T08:06:47;100899.03;;;5.59;100.00
18509;BME280;9383;50.928;12.116;2023-02-12T08:09:16;100905.25;;;5.62;100.00
18509;BME280;9383;50.928;12.116;2023-02-12T08:11:43;100905.25;;;5.64;100.00
18509;BME280;9383;50.928;12.116;2023-02-12T08:14:16;100909.66;;;5.65;100.00
18509;BME280;9383;50.928;12.116;2023-02-12T08:16:45;100909.69;;;5.68;100.00
18509;BME280;9383;50.928;12.116;2023-02-12T08:19:12;100915.00;;;5.70;100.00
18509;BME280;9383;50.928;12.116;2023-02-12T08:21:39;100911.53;;;5.72;100.00
18509;BME280;9383;50.928;12.116;2023-02-12T08:24:06;100922.06;;;5.74;100.00
18509;BME280;9383;50.928;12.116;2023-02-12T08:26:35;100916.00;;;5.76;100.00
18509;BME280;9383;50.928;12.116;2023-02-12T08:29:06;100914.25;;;5.78;100.00
18509;BME280;9383;50.928;12.116;2023-02-12T08:31:35;100912.56;;;5.82;100.00
18509;BME280;9383;50.928;12.116;2023-02-12T08:34:02;100916.09;;;5.83;100.00
18509;BME280;9383;50.928;12.116;2023-02-12T08:36:39;100925.78;;;5.85;100.00
18509;BME280;9383;50.928;12.116;2023-02-12T08:39:06;100928.47;;;5.88;100.00
18509;BME280;9383;50.928;12.116;2023-02-12T08:41:42;100926.75;;;5.92;100.00
18509;BME280;9383;50.928;12.116;2023-02-12T08:44:10;100925.06;;;5.94;100.00
18509;BME280;9383;50.928;12.116;2023-02-12T08:46:42;100925.09;;;5.97;100.00
18509;BME280;9383;50.928;12.116;2023-02-12T08:49:14;100926.00;;;5.99;100.00
18509;BME280;9383;50.928;12.116;2023-02-12T08:51:44;100923.41;;;6.01;100.00
18509;BME280;9383;50.928;12.116;2023-02-12T08:54:14;100928.75;;;6.04;100.00
18509;BME280;9383;50.928;12.116;2023-02-12T08:56:42;100932.34;;;6.08;100.00
18509;BME280;9383;50.928;12.116;2023-02-12T08:59:12;100927.94;;;6.08;100.00
18509;BME280;9383;50.928;12.116;2023-02-12T09:01:40;100928.88;;;6.12;100.00
18509;BME280;9383;50.928;12.116;2023-02-12T09:04:15;100935.03;;;6.14;100.00
18509;BME280;9383;50.928;12.116;2023-02-12T09:06:45;100935.09;;;6.17;100.00
18509;BME280;9383;50.928;12.116;2023-02-12T09:09:11;100936.00;;;6.19;100.00
18509;BME280;9383;50.928;12.116;2023-02-12T09:11:38;100933.44;;;6.24;100.00
18509;BME280;9383;50.928;12.116;2023-02-12T09:14:07;100936.13;;;6.27;100.00
18509;BME280;9383;50.928;12.116;2023-02-12T09:16:35;100929.13;;;6.29;100.00
18509;BME280;9383;50.928;12.116;2023-02-12T09:19:03;100933.53;;;6.31;100.00
18509;BME280;9383;50.928;12.116;2023-02-12T09:21:29;100935.34;;;6.34;100.00
18509;BME280;9383;50.928;12.116;2023-02-12T09:23:56;100942.41;;;6.37;100.00
18509;BME280;9383;50.928;12.116;2023-02-12T09:26:23;100940.66;;;6.37;100.00
18509;BME280;9383;50.928;12.116;2023-02-12T09:28:54;100945.94;;;6.39;100.00
18509;BME280;9383;50.928;12.116;2023-02-12T09:31:23;100950.41;;;6.43;100.00
18509;BME280;9383;50.928;12.116;2023-02-12T09:34:03;100947.78;;;6.44;100.00
18509;BME280;9383;50.928;12.116;2023-02-12T09:36:31;100961.03;;;6.49;100.00
18509;BME280;9383;50.928;12.116;2023-02-12T09:38:57;100971.59;;;6.51;100.00
18509;BME280;9383;50.928;12.116;2023-02-12T09:44:15;100969.00;;;6.55;100.00
18509;BME280;9383;50.928;12.116;2023-02-12T09:50:29;100971.72;;;6.60;100.00
18509;BME280;9383;50.928;12.116;2023-02-12T09:52:59;100971.75;;;6.63;100.00
18509;BME280;9383;50.928;12.116;2023-02-12T09:55:33;100972.69;;;6.65;100.00
18509;BME280;9383;50.928;12.116;2023-02-12T09:58:02;100974.47;;;6.68;100.00
18509;BME280;9383;50.928;12.116;2023-02-12T10:00:31;100984.22;;;6.72;100.00
18509;BME280;9383;50.928;12.116;2023-02-12T10:03:03;100984.25;;;6.75;100.00
18509;BME280;9383;50.928;12.116;2023-02-12T10:05:45;100981.66;;;6.80;100.00
18509;BME280;9383;50.928;12.116;2023-02-12T10:08:25;100986.16;;;6.85;100.00
18509;BME280;9383;50.928;12.116;2023-02-12T10:13:47;100988.00;;;6.94;100.00
18509;BME280;9383;50.928;12.116;2023-02-12T10:16:48;100992.44;;;6.98;100.00
18509;BME280;9383;50.928;12.116;2023-02-12T10:19:25;100996.00;;;7.00;100.00
18509;BME280;9383;50.928;12.116;2023-02-12T10:22:17;100996.06;;;7.05;100.00
18509;BME280;9383;50.928;12.116;2023-02-12T10:25:13;100996.97;;;7.09;100.00
18509;BME280;9383;50.928;12.116;2023-02-12T10:27:50;100994.38;;;7.12;100.00
18509;BME280;9383;50.928;12.116;2023-02-12T10:33:06;100995.41;;;7.22;100.00
18509;BME280;9383;50.928;12.116;2023-02-12T10:35:44;100991.91;;;7.26;100.00
18509;BME280;9383;50.928;12.116;2023-02-12T10:38:34;100989.34;;;7.32;100.00
18509;BME280;9383;50.928;12.116;2023-02-12T10:41:01;100994.66;;;7.37;100.00
18509;BME280;9383;50.928;12.116;2023-02-12T10:43:28;100986.78;;;7.38;100.00
18509;BME280;9383;50.928;12.116;2023-02-12T10:45:55;100990.41;;;7.46;100.00
18509;BME280;9383;50.928;12.116;2023-02-12T10:48:30;100990.44;;;7.53;100.00
18509;BME280;9383;50.928;12.116;2023-02-12T10:53:36;100989.72;;;7.66;100.00
18509;BME280;9383;50.928;12.116;2023-02-12T10:56:13;100988.91;;;7.73;100.00
18509;BME280;9383;50.928;12.116;2023-02-12T11:01:32;100982.00;;;7.85;100.00
18509;BME280;9383;50.928;12.116;2023-02-12T11:07:08;100984.72;;;7.96;100.00
18509;BME280;9383;50.928;12.116;2023-02-12T11:09:43;100981.22;;;8.00;100.00
18509;BME280;9383;50.928;12.116;2023-02-12T11:12:34;100975.97;;;8.03;100.00
18509;BME280;9383;50.928;12.116;2023-02-12T11:15:15;100975.09;;;8.06;100.00
18509;BME280;9383;50.928;12.116;2023-02-12T11:17:45;100973.34;;;8.08;100.00
18509;BME280;9383;50.928;12.116;2023-02-12T11:20:27;100971.66;;;8.13;100.00
18509;BME280;9383;50.928;12.116;2023-02-12T11:22:59;100976.09;;;8.19;100.00
18509;BME280;9383;50.928;12.116;2023-02-12T11:25:32;100974.38;;;8.22;100.00
18509;BME280;9383;50.928;12.116;2023-02-12T11:28:12;100966.47;;;8.25;100.00
18509;BME280;9383;50.928;12.116;2023-02-12T11:31:38;100970.00;;;8.30;100.00
18509;BME280;9383;50.928;12.116;2023-02-12T11:33:39;100974.44;;;8.33;100.00
18509;BME280;9383;50.928;12.116;2023-02-12T11:36:14;100964.78;;;8.37;100.00
18509;BME280;9383;50.928;12.116;2023-02-12T11:38:57;100966.56;;;8.41;100.00
18509;BME280;9383;50.928;12.116;2023-02-12T11:41:36;100964.81;;;8.43;100.00
18509;BME280;9383;50.928;12.116;2023-02-12T11:44:12;100963.06;;;8.47;100.00
18509;BME280;9383;50.928;12.116;2023-02-12T11:46:48;100964.88;;;8.49;100.00
18509;BME280;9383;50.928;12.116;2023-02-12T11:49:28;100959.63;;;8.52;100.00
18509;BME280;9383;50.928;12.116;2023-02-12T11:51:55;100964.06;;;8.55;100.00
18509;BME280;9383;50.928;12.116;2023-02-12T11:54:25;100951.72;;;8.57;100.00
18509;BME280;9383;50.928;12.116;2023-02-12T11:56:53;100956.16;;;8.60;100.00
18509;BME280;9383;50.928;12.116;2023-02-12T11:59:37;100955.25;;;8.62;100.00
18509;BME280;9383;50.928;12.116;2023-02-12T12:02:28;100952.66;;;8.67;100.00
18509;BME280;9383;50.928;12.116;2023-02-12T12:05:17;100956.19;;;8.69;100.00
18509;BME280;9383;50.928;12.116;2023-02-12T12:07:52;100948.25;;;8.72;100.00
18509;BME280;9383;50.928;12.116;2023-02-12T12:10:40;100944.75;;;8.75;100.00
18509;BME280;9383;50.928;12.116;2023-02-12T12:13:16;100955.34;;;8.79;100.00
18509;BME280;9383;50.928;12.116;2023-02-12T12:15:47;100943.03;;;8.83;100.00
18509;BME280;9383;50.928;12.116;2023-02-12T12:18:36;100947.44;;;8.87;100.00
18509;BME280;9383;50.928;12.116;2023-02-12T12:21:49;100951.91;;;8.91;100.00
18509;BME280;9383;50.928;12.116;2023-02-12T12:24:32;100951.03;;;8.95;100.00
18509;BME280;9383;50.928;12.116;2023-02-12T12:27:09;100941.34;;;8.97;100.00
18509;BME280;9383;50.928;12.116;2023-02-12T12:29:58;100945.75;;;9.01;100.00
18509;BME280;9383;50.928;12.116;2023-02-12T12:32:35;100944.03;;;9.07;100.00
18509;BME280;9383;50.928;12.116;2023-02-12T12:35:08;100942.25;;;9.07;100.00
18509;BME280;9383;50.928;12.116;2023-02-12T12:37:50;100938.72;;;9.08;100.00
18509;BME280;9383;50.928;12.116;2023-02-12T12:40:41;100936.09;;;9.10;100.00
18509;BME280;9383;50.928;12.116;2023-02-12T12:45:55;100936.09;;;9.11;100.00
18509;BME280;9383;50.928;12.116;2023-02-12T12:48:46;100937.84;;;9.14;100.00
18509;BME280;9383;50.928;12.116;2023-02-12T12:54:30;100938.78;;;9.22;100.00
18509;BME280;9383;50.928;12.116;2023-02-12T12:57:11;100904.34;;;9.10;100.00
18509;BME280;9383;50.928;12.116;2023-02-12T13:02:38;100935.25;;;9.28;100.00
18509;BME280;9383;50.928;12.116;2023-02-12T13:13:48;100930.88;;;9.32;100.00
18509;BME280;9383;50.928;12.116;2023-02-12T13:16:28;100927.31;;;9.34;100.00
18509;BME280;9383;50.928;12.116;2023-02-12T13:22:21;100929.09;;;9.32;100.00
18509;BME280;9383;50.928;12.116;2023-02-12T13:27:44;100929.09;;;9.29;100.00
18509;BME280;9383;50.928;12.116;2023-02-12T13:30:21;100928.19;;;9.24;100.00
18509;BME280;9383;50.928;12.116;2023-02-12T13:33:09;100925.53;;;9.21;100.00
18509;BME280;9383;50.928;12.116;2023-02-12T13:35:42;100926.41;;;9.20;100.00
18509;BME280;9383;50.928;12.116;2023-02-12T13:38:19;100927.28;;;9.19;100.00
18509;BME280;9383;50.928;12.116;2023-02-12T13:40:47;100930.78;;;9.16;100.00
18509;BME280;9383;50.928;12.116;2023-02-12T13:46:37;100929.94;;;9.15;100.00
18509;BME280;9383;50.928;12.116;2023-02-12T13:49:17;100925.50;;;9.16;100.00
18509;BME280;9383;50.928;12.116;2023-02-12T13:52:05;100915.81;;;9.17;100.00
18509;BME280;9383;50.928;12.116;2023-02-12T13:54:44;100921.13;;;9.17;100.00
18509;BME280;9383;50.928;12.116;2023-02-12T13:57:20;100922.00;;;9.17;100.00
18509;BME280;9383;50.928;12.116;2023-02-12T13:59:51;100915.84;;;9.18;100.00
18509;BME280;9383;50.928;12.116;2023-02-12T14:02:40;100917.59;;;9.19;100.00
18509;BME280;9383;50.928;12.116;2023-02-12T14:05:24;100911.44;;;9.17;100.00
18509;BME280;9383;50.928;12.116;2023-02-12T14:07:54;100909.63;;;9.16;100.00
18509;BME280;9383;50.928;12.116;2023-02-12T14:13:21;100910.50;;;9.07;100.00
18509;BME280;9383;50.928;12.116;2023-02-12T14:15:53;100918.41;;;9.01;100.00
18509;BME280;9383;50.928;12.116;2023-02-12T14:23:53;100914.84;;;8.86;100.00
18509;BME280;9383;50.928;12.116;2023-02-12T14:26:21;100919.25;;;8.86;100.00
18509;BME280;9383;50.928;12.116;2023-02-12T14:28:54;100921.03;;;8.85;100.00
18509;BME280;9383;50.928;12.116;2023-02-12T14:36:46;100909.53;;;8.82;100.00
18509;BME280;9383;50.928;12.116;2023-02-12T14:41:51;100930.72;;;8.86;100.00
18509;BME280;9383;50.928;12.116;2023-02-12T14:46:56;100922.75;;;8.83;100.00
18509;BME280;9383;50.928;12.116;2023-02-12T14:54:54;100924.50;;;8.78;100.00
18509;BME280;9383;50.928;12.116;2023-02-12T14:57:27;100924.50;;;8.75;100.00
18509;BME280;9383;50.928;12.116;2023-02-12T15:02:50;100923.59;;;8.75;100.00
18509;BME280;9383;50.928;12.116;2023-02-12T15:05:31;100922.75;;;8.77;100.00
18509;BME280;9383;50.928;12.116;2023-02-12T15:08:05;100922.75;;;8.79;100.00
18509;BME280;9383;50.928;12.116;2023-02-12T15:10:51;100924.53;;;8.80;100.00
18509;BME280;9383;50.928;12.116;2023-02-12T15:13:23;100916.59;;;8.80;100.00
18509;BME280;9383;50.928;12.116;2023-02-12T15:16:08;100925.41;;;8.79;100.00
18509;BME280;9383;50.928;12.116;2023-02-12T15:19:33;100923.59;;;8.78;100.00